Time;durP1;ratioP1;P1;durP2;ratioP2;P2;SDS_P1;SDS_P2;PMS_P1;PMS_P2;Temp;Humidity;BMP_temperature;BMP_pressure;BME280_temperature;BME280_humidity;BME280_pressure;Samples;Min_cycle;Max_cycle;Signal;HPM_P1;HPM_P2
2023/10/17 00:01:18;;;;;;;0.10;0.10;;;1.80;99.90;;;;;;5032905;28;20053;-77
2023/10/17 00:03:45;;;;;;;0.03;0.03;;;1.80;99.90;;;;;;5029639;28;20033;-77
2023/10/17 00:06:13;;;;;;;0.10;0.10;;;1.90;99.90;;;;;;5030050;28;20033;-79
2023/10/17 00:08:41;;;;;;;0.35;0.35;;;1.90;99.90;;;;;;5024602;28;20029;-77
2023/10/17 00:11:13;;;;;;;0.03;0.03;;;1.80;99.90;;;;;;5033989;28;20486;-78
2023/10/17 00:13:44;;;;;;;0.10;0.10;;;1.80;99.90;;;;;;5029438;28;20037;-77
2023/10/17 00:16:17;;;;;;;0.30;0.30;;;1.80;99.90;;;;;;5031359;28;20048;-77
2023/10/17 00:18:43;;;;;;;0.13;0.13;;;1.80;99.90;;;;;;5028491;28;20052;-78
2023/10/17 00:21:27;;;;;;;0.00;0.00;;;1.80;99.90;;;;;;5028299;28;20033;-78
2023/10/17 00:23:53;;;;;;;0.43;0.40;;;1.80;99.90;;;;;;5028884;28;20044;-78
2023/10/17 00:26:20;;;;;;;0.10;0.10;;;1.70;99.90;;;;;;5029828;28;20041;-78
2023/10/17 00:28:52;;;;;;;0.00;0.00;;;1.50;99.90;;;;;;5029352;28;20041;-77
2023/10/17 00:31:21;;;;;;;1.63;1.27;;;1.50;99.90;;;;;;5028441;28;20873;-78
2023/10/17 00:33:57;;;;;;;0.05;0.05;;;1.50;99.90;;;;;;5034696;28;20408;-77
2023/10/17 00:36:26;;;;;;;0.00;0.00;;;1.50;99.90;;;;;;5030287;28;20463;-80
2023/10/17 00:38:54;;;;;;;0.10;0.10;;;1.40;99.90;;;;;;5030531;28;20036;-78
2023/10/17 00:41:34;;;;;;;1.20;0.95;;;1.50;99.90;;;;;;5043639;28;20042;-77
2023/10/17 00:44:00;;;;;;;0.20;0.20;;;1.50;99.90;;;;;;5030943;28;20034;-78
2023/10/17 00:46:26;;;;;;;0.00;0.00;;;1.50;99.90;;;;;;5031750;28;20044;-80
2023/10/17 00:48:56;;;;;;;0.00;0.00;;;1.60;99.90;;;;;;5025364;28;20038;-78
2023/10/17 00:51:23;;;;;;;0.00;0.00;;;1.60;99.90;;;;;;5031990;28;20029;-80
2023/10/17 00:53:50;;;;;;;0.17;0.17;;;1.60;99.90;;;;;;5035078;28;20038;-77
2023/10/17 00:56:17;;;;;;;0.20;0.20;;;1.50;99.90;;;;;;5030031;28;20053;-77
2023/10/17 00:58:43;;;;;;;0.10;0.10;;;1.40;99.90;;;;;;5024170;28;20049;-77
2023/10/17 01:01:09;;;;;;;2.28;0.70;;;1.30;99.90;;;;;;5030104;28;20374;-77
2023/10/17 01:03:41;;;;;;;0.25;0.25;;;1.30;99.90;;;;;;5031033;28;20056;-78
2023/10/17 01:11:43;;;;;;;0.00;0.00;;;1.40;99.90;;;;;;5031515;28;20037;-77
2023/10/17 01:14:09;;;;;;;0.00;0.00;;;1.40;99.90;;;;;;5028458;28;20033;-77
2023/10/17 01:16:35;;;;;;;0.00;0.00;;;1.40;99.90;;;;;;5030243;28;20044;-77
2023/10/17 01:19:05;;;;;;;0.20;0.20;;;1.30;99.90;;;;;;5031340;28;20044;-77
2023/10/17 01:21:31;;;;;;;0.00;0.00;;;1.30;99.90;;;;;;5029525;28;20900;-78
2023/10/17 01:23:57;;;;;;;0.03;0.03;;;1.20;99.90;;;;;;5029958;28;20026;-78
2023/10/17 01:26:23;;;;;;;0.05;0.05;;;1.00;99.90;;;;;;5034273;28;20053;-77
2023/10/17 01:28:51;;;;;;;0.43;0.35;;;0.80;99.90;;;;;;5028961;28;20056;-77
2023/10/17 01:31:24;;;;;;;0.00;0.00;;;0.70;99.90;;;;;;5030949;28;20041;-77
2023/10/17 01:33:54;;;;;;;0.32;0.32;;;0.80;99.90;;;;;;5029481;28;20056;-77
2023/10/17 01:36:21;;;;;;;0.10;0.10;;;0.80;99.90;;;;;;5028220;28;20034;-77
2023/10/17 01:38:50;;;;;;;0.00;0.00;;;0.80;99.90;;;;;;5028938;28;20029;-77
2023/10/17 01:41:18;;;;;;;0.25;0.25;;;0.70;99.90;;;;;;5029975;28;20044;-77
2023/10/17 01:43:48;;;;;;;0.10;0.10;;;0.70;99.90;;;;;;5029969;28;20057;-77
2023/10/17 01:46:21;;;;;;;0.10;0.10;;;0.70;99.90;;;;;;5034111;28;20045;-78
2023/10/17 01:48:49;;;;;;;0.65;0.52;;;0.80;99.90;;;;;;5041872;28;20049;-77
2023/10/17 01:51:16;;;;;;;0.40;0.20;;;1.00;99.90;;;;;;5031538;28;20037;-77
2023/10/17 01:53:48;;;;;;;2.60;0.63;;;1.00;99.90;;;;;;5029589;28;20041;-77
2023/10/17 01:56:18;;;;;;;0.05;0.05;;;1.00;99.90;;;;;;5043582;28;20121;-78
2023/10/17 01:58:51;;;;;;;0.00;0.00;;;1.10;99.90;;;;;;5027508;28;20474;-77
2023/10/17 02:01:25;;;;;;;0.15;0.15;;;1.00;99.90;;;;;;5030002;28;20061;-78
2023/10/17 02:04:03;;;;;;;0.00;0.00;;;1.00;99.90;;;;;;5028560;28;20041;-77
2023/10/17 02:06:32;;;;;;;0.30;0.30;;;1.00;99.90;;;;;;5027678;28;20489;-80
2023/10/17 02:08:59;;;;;;;3.22;0.52;;;1.00;99.90;;;;;;5042694;28;20036;-78
2023/10/17 02:11:40;;;;;;;0.60;0.57;;;0.90;99.90;;;;;;5031257;28;20045;-78
2023/10/17 02:14:09;;;;;;;0.20;0.20;;;0.90;99.90;;;;;;5025426;28;20033;-78
2023/10/17 02:16:35;;;;;;;0.10;0.10;;;0.80;99.90;;;;;;5030004;28;20489;-77
2023/10/17 02:19:08;;;;;;;0.00;0.00;;;0.80;99.90;;;;;;5025669;28;20037;-77
2023/10/17 02:21:40;;;;;;;0.00;0.00;;;0.70;99.90;;;;;;5029616;28;20033;-77
2023/10/17 02:24:06;;;;;;;0.00;0.00;;;0.60;99.90;;;;;;5043869;28;20402;-77
2023/10/17 02:26:54;;;;;;;0.10;0.10;;;0.50;99.90;;;;;;5025933;28;20509;-77
2023/10/17 02:29:26;;;;;;;0.08;0.08;;;0.60;99.90;;;;;;5026812;28;20067;-77
2023/10/17 02:31:58;;;;;;;0.00;0.00;;;0.50;99.90;;;;;;5028848;28;20034;-77
2023/10/17 02:34:31;;;;;;;1.05;0.57;;;0.50;99.90;;;;;;5029186;28;20045;-77
2023/10/17 02:37:00;;;;;;;0.10;0.10;;;0.50;99.90;;;;;;5027543;28;20037;-77
2023/10/17 02:39:27;;;;;;;0.00;0.00;;;0.60;99.90;;;;;;5032697;28;20041;-77
2023/10/17 02:42:06;;;;;;;0.00;0.00;;;0.50;99.90;;;;;;5028491;28;20057;-77
2023/10/17 02:44:43;;;;;;;0.82;0.38;;;0.50;99.90;;;;;;5029828;28;20044;-77
2023/10/17 02:47:12;;;;;;;0.00;0.00;;;0.60;99.90;;;;;;5027415;28;20029;-77
2023/10/17 02:49:40;;;;;;;0.20;0.20;;;0.60;99.90;;;;;;5027584;28;20029;-78
2023/10/17 02:52:06;;;;;;;0.08;0.08;;;0.60;99.90;;;;;;5024353;28;20065;-77
2023/10/17 02:57:18;;;;;;;0.00;0.00;;;0.40;99.90;;;;;;5042603;28;20061;-77
2023/10/17 02:59:45;;;;;;;0.00;0.00;;;0.40;99.90;;;;;;5022734;28;20116;-77
2023/10/17 03:02:12;;;;;;;0.40;0.40;;;0.30;99.90;;;;;;5029338;28;20033;-78
2023/10/17 03:04:42;;;;;;;0.00;0.00;;;0.40;99.90;;;;;;5029821;28;20033;-77
2023/10/17 03:07:11;;;;;;;0.00;0.00;;;0.50;99.90;;;;;;5028993;28;20029;-78
2023/10/17 03:09:39;;;;;;;0.85;0.75;;;0.60;99.90;;;;;;5028557;28;20382;-77
2023/10/17 03:17:12;;;;;;;0.00;0.00;;;0.60;99.90;;;;;;5029163;28;20049;-77
2023/10/17 03:19:38;;;;;;;0.05;0.05;;;0.60;99.90;;;;;;5028021;28;20029;-78
2023/10/17 03:22:24;;;;;;;0.20;0.13;;;0.60;99.90;;;;;;5030045;28;20037;-78
2023/10/17 03:24:59;;;;;;;0.63;0.38;;;0.60;99.90;;;;;;5028157;28;20029;-78
2023/10/17 03:27:37;;;;;;;0.00;0.00;;;0.50;99.90;;;;;;5029484;28;20046;-77
2023/10/17 03:30:08;;;;;;;0.40;0.38;;;0.40;99.90;;;;;;5023852;28;20479;-78
2023/10/17 03:32:34;;;;;;;0.15;0.15;;;0.40;99.90;;;;;;5032470;28;20042;-80
2023/10/17 03:35:03;;;;;;;0.00;0.00;;;0.50;99.90;;;;;;5027638;28;20049;-77
2023/10/17 03:37:29;;;;;;;0.00;0.00;;;0.60;99.90;;;;;;5034383;28;20052;-77
2023/10/17 03:40:14;;;;;;;0.10;0.10;;;0.60;99.90;;;;;;5026540;28;20030;-77
2023/10/17 03:45:23;;;;;;;0.00;0.00;;;0.70;99.90;;;;;;5029743;28;20029;-78
2023/10/17 03:47:56;;;;;;;0.00;0.00;;;0.80;99.90;;;;;;5026098;28;20030;-77
2023/10/17 03:50:34;;;;;;;0.22;0.22;;;0.80;99.90;;;;;;5032189;28;20141;-77
2023/10/17 03:53:07;;;;;;;0.20;0.20;;;0.90;99.90;;;;;;5031405;28;20163;-77
2023/10/17 03:55:42;;;;;;;0.00;0.00;;;1.00;99.90;;;;;;5032624;28;20116;-80
2023/10/17 03:58:20;;;;;;;0.65;0.65;;;1.10;99.90;;;;;;5030311;28;20466;-78
2023/10/17 04:00:46;;;;;;;0.00;0.00;;;1.20;99.90;;;;;;5031833;28;20051;-77
2023/10/17 04:03:21;;;;;;;0.70;0.17;;;1.30;99.90;;;;;;5029396;28;20037;-77
2023/10/17 04:05:50;;;;;;;0.10;0.10;;;1.40;99.90;;;;;;5030824;28;20033;-77
2023/10/17 04:08:19;;;;;;;0.28;0.28;;;1.50;99.90;;;;;;5031919;28;20026;-79
2023/10/17 04:11:08;;;;;;;0.00;0.00;;;1.50;99.90;;;;;;5029011;28;20034;-79
2023/10/17 04:13:35;;;;;;;0.32;0.32;;;1.50;99.90;;;;;;5030580;28;20040;-81
2023/10/17 04:16:14;;;;;;;0.10;0.10;;;1.60;99.90;;;;;;5026682;28;20044;-78
2023/10/17 04:18:41;;;;;;;0.00;0.00;;;1.60;99.90;;;;;;5028194;28;20042;-78
2023/10/17 04:21:27;;;;;;;0.65;0.35;;;1.70;99.90;;;;;;5031226;28;20463;-79
2023/10/17 04:24:04;;;;;;;0.10;0.10;;;1.70;99.90;;;;;;5030210;28;20034;-78
2023/10/17 04:26:34;;;;;;;0.25;0.25;;;1.80;99.90;;;;;;5032981;28;20071;-79
2023/10/17 04:29:11;;;;;;;0.13;0.13;;;1.80;99.90;;;;;;5030512;28;20060;-78
2023/10/17 04:31:38;;;;;;;0.03;0.03;;;1.80;99.90;;;;;;5029430;28;20046;-79
2023/10/17 04:34:09;;;;;;;0.22;0.22;;;1.90;99.90;;;;;;5030193;28;20375;-77
2023/10/17 04:36:37;;;;;;;0.10;0.10;;;1.90;99.90;;;;;;5031551;28;20359;-80
2023/10/17 04:42:25;;;;;;;0.77;0.63;;;1.90;99.90;;;;;;5030092;28;20034;-81
2023/10/17 04:44:39;;;;;;;0.35;0.35;;;1.90;99.90;;;;;;5026613;28;20430;-77
2023/10/17 04:49:36;;;;;;;0.05;0.05;;;1.80;99.90;;;;;;5031535;28;20041;-78
2023/10/17 04:52:06;;;;;;;0.00;0.00;;;1.80;99.90;;;;;;5045287;28;20045;-78
2023/10/17 04:57:06;;;;;;;0.10;0.10;;;1.80;99.90;;;;;;5029615;28;20289;-78
2023/10/17 06:19:09;;;;;;;0.03;0.03;;;1.80;99.90;;;;;;5022075;28;20034;-78
2023/10/17 06:21:35;;;;;;;0.80;0.80;;;1.70;99.90;;;;;;5029954;28;20044;-78
2023/10/17 06:26:47;;;;;;;0.20;0.20;;;1.70;99.90;;;;;;5027832;28;20049;-77
2023/10/17 06:34:20;;;;;;;0.10;0.10;;;1.80;99.90;;;;;;5029344;28;20417;-79
2023/10/17 06:36:59;;;;;;;0.10;0.10;;;1.90;99.90;;;;;;5023843;28;20521;-77
2023/10/17 06:39:36;;;;;;;0.47;0.32;;;2.00;99.90;;;;;;5026624;28;20034;-78
2023/10/17 06:42:18;;;;;;;1.10;1.08;;;2.00;99.90;;;;;;5025370;28;20577;-77
2023/10/17 06:44:53;;;;;;;0.10;0.10;;;2.20;99.90;;;;;;5027342;28;20056;-77
2023/10/17 06:47:41;;;;;;;0.40;0.40;;;2.30;99.90;;;;;;5026904;28;20683;-76
2023/10/17 06:55:22;;;;;;;0.75;0.63;;;2.60;99.90;;;;;;5028662;28;20029;-77
2023/10/17 06:57:52;;;;;;;0.10;0.10;;;2.70;99.90;;;;;;5027138;28;20040;-77
2023/10/17 07:00:27;;;;;;;0.25;0.25;;;2.80;99.90;;;;;;5025594;28;20164;-78
2023/10/17 07:02:57;;;;;;;1.05;0.90;;;2.80;99.90;;;;;;5028424;28;20363;-79
2023/10/17 07:05:24;;;;;;;0.10;0.10;;;2.90;99.90;;;;;;5038037;28;20092;-81
2023/10/17 07:07:53;;;;;;;0.38;0.38;;;3.00;99.90;;;;;;5028096;28;20033;-81
2023/10/17 07:13:34;;;;;;;0.85;0.85;;;3.10;99.90;;;;;;5029744;28;20036;-81
2023/10/17 07:16:10;;;;;;;3.08;0.60;;;3.20;99.90;;;;;;5023896;28;20581;-81
2023/10/17 07:18:44;;;;;;;0.20;0.20;;;3.30;99.90;;;;;;5028730;28;20100;-82
2023/10/17 07:23:48;;;;;;;0.55;0.55;;;3.60;99.90;;;;;;5025976;28;20041;-80
2023/10/17 07:26:17;;;;;;;0.50;0.50;;;3.80;99.90;;;;;;5028090;28;20415;-82
2023/10/17 07:28:44;;;;;;;3.03;1.45;;;3.90;99.90;;;;;;5027538;28;20033;-80
2023/10/17 07:31:11;;;;;;;0.63;0.63;;;4.00;99.90;;;;;;5032409;28;20471;-82
2023/10/17 07:33:41;;;;;;;0.15;0.15;;;4.20;99.90;;;;;;5036042;28;20037;-82
2023/10/17 07:36:15;;;;;;;1.45;0.65;;;4.40;99.90;;;;;;5032106;28;20486;-82
2023/10/17 07:38:45;;;;;;;0.30;0.30;;;4.50;97.00;;;;;;5030602;28;20037;-80
2023/10/17 07:41:14;;;;;;;0.80;0.80;;;4.70;86.10;;;;;;5033994;28;20402;-82
2023/10/17 07:43:44;;;;;;;0.43;0.43;;;4.70;68.40;;;;;;5029922;28;20045;-80
2023/10/17 07:46:19;;;;;;;0.40;0.40;;;4.80;69.80;;;;;;5031767;28;20041;-81
2023/10/17 07:48:48;;;;;;;0.10;0.10;;;5.00;64.60;;;;;;5026243;28;20038;-81
2023/10/17 07:51:18;;;;;;;0.35;0.35;;;5.20;37.60;;;;;;5028232;28;20398;-82
2023/10/17 07:53:47;;;;;;;0.10;0.10;;;5.40;29.20;;;;;;5026883;28;20680;-80
2023/10/17 07:56:20;;;;;;;0.95;0.93;;;5.40;8.10;;;;;;5030355;28;20057;-82
2023/10/17 07:59:07;;;;;;;0.57;0.57;;;5.50;1.00;;;;;;5027129;28;20026;-81
2023/10/17 08:01:45;;;;;;;0.10;0.10;;;5.60;1.00;;;;;;5029777;28;20061;-82
2023/10/17 08:04:29;;;;;;;0.20;0.20;;;5.60;1.00;;;;;;5029310;28;20057;-82
2023/10/17 08:06:56;;;;;;;0.40;0.40;;;5.60;1.00;;;;;;5026348;28;20505;-81
2023/10/17 08:11:53;;;;;;;0.40;0.40;;;5.80;1.00;;;;;;5028588;28;20030;-81
2023/10/17 08:14:26;;;;;;;0.60;0.60;;;5.90;1.00;;;;;;5031440;28;20029;-81
2023/10/17 08:16:57;;;;;;;1.38;0.65;;;6.00;1.00;;;;;;5026399;28;20525;-81
2023/10/17 08:19:29;;;;;;;0.10;0.10;;;6.10;1.00;;;;;;5029337;28;20136;-81
2023/10/17 08:27:13;;;;;;;0.60;0.60;;;6.40;1.00;;;;;;5028610;28;20474;-81
2023/10/17 08:29:43;;;;;;;5.50;1.13;;;6.50;1.00;;;;;;5027713;28;20036;-80
2023/10/17 08:34:48;;;;;;;0.10;0.10;;;6.70;1.00;;;;;;5029254;28;20052;-80
2023/10/17 08:37:19;;;;;;;1.98;0.75;;;6.80;1.00;;;;;;5029588;28;20041;-79
2023/10/17 08:42:14;;;;;;;0.25;0.25;;;7.20;1.00;;;;;;5029607;28;20037;-79
2023/10/17 08:44:43;;;;;;;0.35;0.30;;;7.30;99.90;;;;;;5031048;28;20038;-78
2023/10/17 08:47:18;;;;;;;1.10;0.68;;;7.40;99.90;;;;;;5027212;28;20387;-80
2023/10/17 08:49:46;;;;;;;0.30;0.30;;;7.50;99.90;;;;;;5027969;28;20029;-78
2023/10/17 08:52:24;;;;;;;1.95;1.48;;;7.60;99.90;;;;;;5029102;28;20029;-80
2023/10/17 08:54:51;;;;;;;0.30;0.30;;;7.70;99.90;;;;;;5029278;28;20033;-79
2023/10/17 08:57:18;;;;;;;0.47;0.32;;;7.80;99.90;;;;;;5026617;28;20471;-80
2023/10/17 09:02:16;;;;;;;0.10;0.10;;;8.10;99.90;;;;;;5033624;28;20104;-80
2023/10/17 09:04:43;;;;;;;0.35;0.20;;;8.20;99.90;;;;;;5027100;28;20029;-78
2023/10/17 09:07:22;;;;;;;0.10;0.10;;;8.30;99.90;;;;;;5028634;28;20063;-80
2023/10/17 09:09:54;;;;;;;0.68;0.38;;;8.40;99.90;;;;;;5027267;28;20402;-79
2023/10/17 09:12:26;;;;;;;0.20;0.20;;;8.60;99.90;;;;;;5031610;28;20037;-79
2023/10/17 09:14:56;;;;;;;0.75;0.50;;;8.70;99.90;;;;;;5028317;28;20029;-80
2023/10/17 09:19:51;;;;;;;2.25;0.60;;;8.70;99.90;;;;;;5030966;28;19916;-79
2023/10/17 09:22:40;;;;;;;0.30;0.30;;;8.90;99.90;;;;;;5030210;28;20029;-81
2023/10/17 09:25:19;;;;;;;3.40;1.75;;;9.00;99.90;;;;;;5023170;28;20029;-80
2023/10/17 09:27:56;;;;;;;0.85;0.57;;;9.20;99.90;;;;;;5025326;28;20049;-79
2023/10/17 09:30:26;;;;;;;1.08;0.80;;;9.30;99.90;;;;;;5027431;28;20033;-81
2023/10/17 09:32:52;;;;;;;3.28;0.93;;;9.30;99.90;;;;;;5026400;28;20050;-81
2023/10/17 09:35:19;;;;;;;0.50;0.50;;;9.50;99.90;;;;;;5028852;28;20034;-80
2023/10/17 09:51:40;;;;;;;;;;;10.40;1.00;;;;;;5001118;23;20060;-80
2023/10/17 09:54:08;;;;;;;0.52;0.43;;;10.20;1.00;;;;;;5016293;28;20368;-76
2023/10/17 09:56:42;;;;;;;0.15;0.15;;;10.10;1.00;;;;;;5041193;28;20037;-77
2023/10/17 09:59:12;;;;;;;1.05;0.47;;;10.30;1.00;;;;;;5039000;28;20051;-75
2023/10/17 10:01:39;;;;;;;1.05;0.85;;;10.30;1.00;;;;;;5037768;28;20046;-75
2023/10/17 10:04:07;;;;;;;0.20;0.20;;;10.20;1.00;;;;;;5031646;28;20386;-75
2023/10/17 10:06:36;;;;;;;1.70;0.65;;;10.30;1.00;;;;;;5032069;28;20040;-75
2023/10/17 10:09:09;;;;;;;2.00;1.15;;;10.30;1.00;;;;;;5037352;28;20033;-76
2023/10/17 10:12:10;;;;;;;1.75;0.60;;;10.40;1.00;;;;;;5017954;28;20030;-78
2023/10/17 10:14:42;;;;;;;0.55;0.55;;;10.50;1.00;;;;;;5032784;28;20032;-74
2023/10/17 10:17:13;;;;;;;0.20;0.20;;;10.60;1.00;;;;;;5035386;28;20477;-75
2023/10/17 10:19:46;;;;;;;1.05;0.75;;;10.50;99.90;;;;;;5016244;28;20160;-77
2023/10/17 10:22:14;;;;;;;0.43;0.35;;;10.60;1.00;;;;;;5028384;28;20033;-74
2023/10/17 10:24:42;;;;;;;0.47;0.47;;;10.60;1.00;;;;;;5035869;28;20029;-78
2023/10/17 10:27:08;;;;;;;0.50;0.50;;;10.60;1.00;;;;;;5015873;28;20041;-75
2023/10/17 10:29:37;;;;;;;1.38;1.27;;;10.60;1.00;;;;;;5031768;28;20029;-77
2023/10/17 10:32:07;;;;;;;0.30;0.30;;;10.50;1.00;;;;;;5032226;28;20367;-79
2023/10/17 10:34:37;;;;;;;1.90;0.98;;;10.50;1.00;;;;;;5028830;28;20088;-77
2023/10/17 10:37:04;;;;;;;1.70;1.05;;;10.60;1.00;;;;;;5027652;28;20033;-76
2023/10/17 10:39:31;;;;;;;1.33;1.20;;;10.70;1.00;;;;;;5042705;28;20033;-76
2023/10/17 10:42:02;;;;;;;1.10;0.95;;;10.70;1.00;;;;;;5032658;28;20292;-75
2023/10/17 10:44:28;;;;;;;0.35;0.35;;;10.60;99.90;;;;;;5015011;28;20052;-75
2023/10/17 10:46:55;;;;;;;0.55;0.40;;;10.50;99.90;;;;;;5030859;28;20038;-75
2023/10/17 10:49:28;;;;;;;2.75;0.88;;;10.50;99.90;;;;;;5037418;28;20021;-75
2023/10/17 10:52:00;;;;;;;0.40;0.40;;;10.50;1.00;;;;;;5038298;28;20056;-74
2023/10/17 10:54:49;;;;;;;0.30;0.30;;;10.50;1.00;;;;;;5026626;28;20480;-74
2023/10/17 10:57:17;;;;;;;13.50;1.27;;;10.60;1.00;;;;;;5016395;28;20048;-75
2023/10/17 10:59:49;;;;;;;12.43;1.75;;;10.60;99.90;;;;;;5027192;28;20053;-76
2023/10/17 11:02:16;;;;;;;0.50;0.50;;;10.60;99.90;;;;;;5008729;28;20041;-75
2023/10/17 11:04:42;;;;;;;0.45;0.35;;;10.70;1.00;;;;;;5011456;28;20041;-75
2023/10/17 11:07:21;;;;;;;0.85;0.73;;;10.60;99.90;;;;;;5024616;28;20064;-73
2023/10/17 11:10:06;;;;;;;0.65;0.65;;;10.60;1.00;;;;;;5021215;28;20044;-75
2023/10/17 11:12:33;;;;;;;0.50;0.50;;;10.60;99.90;;;;;;5025095;28;20037;-75
2023/10/17 11:15:16;;;;;;;0.80;0.80;;;10.60;1.00;;;;;;5033987;28;20196;-75
2023/10/17 11:17:43;;;;;;;0.85;0.57;;;10.70;1.00;;;;;;5031080;28;20056;-77
2023/10/17 11:20:18;;;;;;;0.17;0.17;;;10.80;1.00;;;;;;5027263;28;20059;-76
2023/10/17 11:22:46;;;;;;;1.15;1.10;;;10.80;99.90;;;;;;5029529;28;20045;-75
2023/10/17 11:25:36;;;;;;;1.60;0.85;;;10.80;99.90;;;;;;5031436;28;20113;-75
2023/10/17 11:28:07;;;;;;;1.20;1.10;;;10.80;1.00;;;;;;5018589;28;20044;-77
2023/10/17 11:30:40;;;;;;;0.20;0.20;;;10.90;1.00;;;;;;5033098;28;20485;-77
2023/10/17 11:33:11;;;;;;;0.22;0.22;;;11.00;1.00;;;;;;5031231;28;20029;-79
2023/10/17 11:35:46;;;;;;;1.13;1.08;;;11.20;99.90;;;;;;5036176;28;20041;-75
2023/10/17 11:38:35;;;;;;;0.20;0.20;;;11.30;99.90;;;;;;5046335;28;20029;-75
2023/10/17 11:41:03;;;;;;;1.35;0.85;;;11.40;99.90;;;;;;5044697;28;20048;-78
2023/10/17 11:43:34;;;;;;;0.10;0.10;;;11.40;99.90;;;;;;5045933;28;20039;-77
2023/10/17 11:46:12;;;;;;;0.40;0.40;;;11.50;99.90;;;;;;5050463;28;20040;-78
2023/10/17 11:48:44;;;;;;;0.50;0.50;;;11.50;99.90;;;;;;5045921;28;20056;-77
2023/10/17 11:51:17;;;;;;;0.63;0.63;;;11.80;99.90;;;;;;5046439;28;20040;-77
2023/10/17 11:54:04;;;;;;;0.40;0.40;;;11.80;99.90;;;;;;5048470;28;20060;-75
2023/10/17 11:56:37;;;;;;;0.25;0.25;;;12.00;99.90;;;;;;5053516;28;20029;-75
2023/10/17 11:59:07;;;;;;;0.13;0.13;;;12.10;99.90;;;;;;5059896;28;20431;-84
2023/10/17 12:01:33;;;;;;;0.40;0.40;;;12.40;99.90;;;;;;5046239;28;20045;-80
2023/10/17 12:04:05;;;;;;;0.17;0.17;;;12.40;99.90;;;;;;5043729;28;20041;-88
2023/10/17 12:06:35;;;;;;;1.20;0.73;;;12.40;99.90;;;;;;5038878;28;20037;-86
2023/10/17 12:09:17;;;;;;;0.00;0.00;;;12.50;99.90;;;;;;5063187;28;20138;-88
2023/10/17 12:11:54;;;;;;;0.20;0.20;;;12.50;99.90;;;;;;5027855;28;20045;-87
2023/10/17 12:14:21;;;;;;;0.30;0.30;;;12.50;99.90;;;;;;5048130;28;20042;-84
2023/10/17 12:16:53;;;;;;;0.57;0.57;;;12.30;99.90;;;;;;5057727;28;20030;-88
2023/10/17 12:19:21;;;;;;;1.30;0.85;;;12.10;99.90;;;;;;5049529;28;20037;-87
2023/10/17 12:21:50;;;;;;;0.20;0.20;;;12.00;99.90;;;;;;5052449;28;20049;-86
2023/10/17 12:24:20;;;;;;;0.45;0.38;;;12.00;99.90;;;;;;5049816;28;20512;-85
2023/10/17 12:26:52;;;;;;;0.20;0.20;;;11.90;99.90;;;;;;5036918;28;20029;-88
2023/10/17 12:29:19;;;;;;;0.28;0.28;;;12.10;99.90;;;;;;5050307;28;20037;-85
2023/10/17 12:31:46;;;;;;;0.35;0.35;;;12.20;99.90;;;;;;5055139;28;20040;-88
2023/10/17 12:34:15;;;;;;;0.60;0.60;;;12.20;99.90;;;;;;5034712;28;20060;-88
2023/10/17 12:36:41;;;;;;;0.40;0.40;;;12.30;99.90;;;;;;5031378;28;20045;-84
2023/10/17 12:39:08;;;;;;;0.45;0.38;;;12.30;99.90;;;;;;5050311;28;20037;-86
2023/10/17 12:41:37;;;;;;;0.68;0.50;;;12.30;99.90;;;;;;5044231;28;20030;-84
2023/10/17 12:44:03;;;;;;;1.13;0.73;;;12.20;99.90;;;;;;5046336;28;20425;-86
2023/10/17 12:46:30;;;;;;;0.10;0.10;;;12.20;99.90;;;;;;5029920;28;20046;-87
2023/10/17 12:48:57;;;;;;;0.63;0.40;;;12.30;99.90;;;;;;5060665;28;20057;-88
2023/10/17 12:51:23;;;;;;;0.28;0.28;;;12.40;99.90;;;;;;5053120;28;20049;-88
2023/10/17 12:53:50;;;;;;;1.48;0.47;;;12.50;99.90;;;;;;5054229;28;20045;-86
2023/10/17 12:56:20;;;;;;;0.43;0.40;;;12.50;99.90;;;;;;5052045;28;20028;-86
2023/10/17 12:58:47;;;;;;;1.35;0.30;;;12.50;99.90;;;;;;5058058;28;20044;-85
2023/10/17 13:01:13;;;;;;;0.45;0.45;;;12.30;99.90;;;;;;5037684;28;20092;-84
2023/10/17 13:03:40;;;;;;;0.75;0.43;;;12.30;99.90;;;;;;5031117;28;20065;-85
2023/10/17 13:06:10;;;;;;;0.57;0.47;;;12.30;99.90;;;;;;5036712;28;20330;-86
2023/10/17 13:08:37;;;;;;;1.00;0.95;;;12.20;99.90;;;;;;5048467;28;20035;-85
2023/10/17 13:11:03;;;;;;;0.30;0.30;;;12.10;99.90;;;;;;5050962;28;20033;-86
2023/10/17 13:13:30;;;;;;;2.45;1.15;;;12.00;99.90;;;;;;5030622;28;20541;-84
2023/10/17 13:15:57;;;;;;;0.65;0.55;;;12.00;99.90;;;;;;5053640;28;20036;-87
2023/10/17 13:18:25;;;;;;;1.05;0.43;;;12.00;99.90;;;;;;5036284;28;20473;-88
2023/10/17 13:20:57;;;;;;;0.40;0.38;;;12.10;99.90;;;;;;5038280;28;20037;-87
2023/10/17 13:23:23;;;;;;;1.10;0.73;;;12.20;99.90;;;;;;5051846;28;20049;-87
2023/10/17 13:25:49;;;;;;;0.65;0.57;;;12.40;99.90;;;;;;5040746;28;20137;-84
2023/10/17 13:28:16;;;;;;;0.88;0.82;;;12.50;99.90;;;;;;5054515;28;20033;-85
2023/10/17 13:30:42;;;;;;;0.32;0.32;;;12.60;99.90;;;;;;5026120;28;20385;-86
2023/10/17 13:33:08;;;;;;;0.90;0.90;;;12.60;99.90;;;;;;5018936;28;20045;-86
2023/10/17 13:35:38;;;;;;;2.08;1.00;;;12.70;99.90;;;;;;5052766;28;20036;-86
2023/10/17 13:38:04;;;;;;;0.15;0.15;;;12.50;99.90;;;;;;5040369;28;20037;-85
2023/10/17 13:40:32;;;;;;;0.10;0.10;;;12.70;99.90;;;;;;5052418;28;20037;-86
2023/10/17 13:43:00;;;;;;;1.42;0.85;;;12.70;99.90;;;;;;5035001;28;20052;-85
2023/10/17 13:45:35;;;;;;;0.10;0.10;;;12.70;99.90;;;;;;5010898;28;20041;-86
2023/10/17 13:48:01;;;;;;;0.40;0.30;;;12.70;99.90;;;;;;5034287;28;20033;-88
2023/10/17 13:50:27;;;;;;;0.20;0.20;;;12.70;99.90;;;;;;5051469;28;20040;-86
2023/10/17 13:52:54;;;;;;;0.45;0.40;;;12.70;99.90;;;;;;5048708;28;20056;-87
2023/10/17 13:55:26;;;;;;;0.38;0.38;;;12.80;99.90;;;;;;5062984;28;20041;-85
2023/10/17 13:58:00;;;;;;;0.13;0.13;;;12.80;99.90;;;;;;5052010;28;20060;-86
2023/10/17 14:00:42;;;;;;;0.75;0.30;;;12.70;99.90;;;;;;5052894;28;20029;-88
2023/10/17 14:03:13;;;;;;;0.43;0.40;;;12.80;99.90;;;;;;5062019;28;20049;-87
2023/10/17 14:05:49;;;;;;;1.08;0.65;;;12.90;99.90;;;;;;5077416;28;20032;-84
2023/10/17 14:08:17;;;;;;;0.20;0.20;;;13.00;99.90;;;;;;5078667;28;20024;-85
2023/10/17 14:10:46;;;;;;;0.30;0.30;;;12.90;99.90;;;;;;5049115;28;20048;-86
2023/10/17 14:13:16;;;;;;;0.10;0.10;;;12.90;99.90;;;;;;5040054;28;20025;-84
2023/10/17 14:15:42;;;;;;;0.55;0.52;;;12.80;99.90;;;;;;5048199;28;20068;-91
2023/10/17 14:18:09;;;;;;;2.15;0.57;;;12.70;99.90;;;;;;5025824;28;20052;-84
2023/10/17 14:20:39;;;;;;;1.95;0.47;;;12.60;99.90;;;;;;5040591;28;20040;-84
2023/10/17 14:23:11;;;;;;;0.63;0.43;;;12.50;99.90;;;;;;5050512;28;20393;-86
2023/10/17 14:28:25;;;;;;;0.75;0.60;;;12.40;99.90;;;;;;5032611;28;20048;-87
2023/10/17 14:30:51;;;;;;;0.30;0.30;;;12.40;99.90;;;;;;5038549;28;20492;-85
2023/10/17 14:33:17;;;;;;;0.85;0.50;;;12.30;99.90;;;;;;5050662;28;20029;-87
2023/10/17 14:35:44;;;;;;;0.52;0.30;;;12.30;99.90;;;;;;5060219;28;20048;-85
2023/10/17 14:38:11;;;;;;;1.65;0.57;;;12.20;99.90;;;;;;5053928;28;20685;-81
2023/10/17 14:40:38;;;;;;;0.75;0.40;;;12.20;99.90;;;;;;5030086;28;20041;-82
2023/10/17 14:43:09;;;;;;;7.47;0.70;;;12.20;99.90;;;;;;5043750;28;20040;-79
2023/10/17 14:45:40;;;;;;;0.40;0.40;;;12.30;99.90;;;;;;5050520;28;20033;-80
2023/10/17 14:48:11;;;;;;;;;;;12.30;99.90;;;;;;5038318;28;20033;-80
2023/10/17 14:50:39;;;;;;;0.52;0.30;;;12.40;99.90;;;;;;5047591;28;19917;-80
2023/10/17 14:53:06;;;;;;;0.10;0.10;;;12.40;99.90;;;;;;5033132;28;20046;-77
2023/10/17 14:55:34;;;;;;;0.38;0.38;;;12.30;99.90;;;;;;5038899;28;20043;-80
2023/10/17 14:58:01;;;;;;;0.32;0.32;;;12.30;99.90;;;;;;5040726;28;20041;-79
2023/10/17 15:00:28;;;;;;;0.30;0.28;;;12.20;99.90;;;;;;5054500;28;20045;-81
2023/10/17 15:02:55;;;;;;;0.50;0.50;;;12.20;99.90;;;;;;5051053;28;20024;-78
2023/10/17 15:05:22;;;;;;;2.65;0.35;;;12.20;99.90;;;;;;5045071;28;20038;-79
2023/10/17 15:07:48;;;;;;;0.10;0.10;;;12.30;99.90;;;;;;5052032;28;20469;-79
2023/10/17 15:10:14;;;;;;;0.15;0.15;;;12.30;99.90;;;;;;5049261;28;20048;-83
2023/10/17 15:12:42;;;;;;;0.40;0.40;;;12.20;99.90;;;;;;5056034;28;20033;-80
2023/10/17 15:15:16;;;;;;;1.58;0.55;;;12.20;99.90;;;;;;5049648;28;20056;-79
2023/10/17 15:17:43;;;;;;;0.30;0.30;;;12.20;99.90;;;;;;5024357;28;20041;-80
2023/10/17 15:20:13;;;;;;;1.33;0.73;;;12.10;99.90;;;;;;5029144;28;20036;-79
2023/10/17 15:22:41;;;;;;;0.30;0.30;;;12.10;99.90;;;;;;5026309;28;20139;-81
2023/10/17 15:25:15;;;;;;;0.65;0.40;;;12.10;99.90;;;;;;5034379;28;20045;-77
2023/10/17 15:27:45;;;;;;;0.30;0.30;;;12.00;99.90;;;;;;5049064;28;20049;-78
2023/10/17 15:30:15;;;;;;;3.08;0.85;;;12.00;99.90;;;;;;5038861;28;20037;-78
2023/10/17 15:32:41;;;;;;;0.93;0.60;;;12.00;99.90;;;;;;5047339;28;20024;-79
2023/10/17 15:35:13;;;;;;;0.25;0.25;;;11.90;99.90;;;;;;5017415;28;20037;-81
2023/10/17 15:37:46;;;;;;;0.10;0.10;;;11.90;99.90;;;;;;5053239;28;20488;-78
2023/10/17 15:40:19;;;;;;;0.70;0.70;;;11.80;99.90;;;;;;5049362;28;20036;-78
2023/10/17 15:42:49;;;;;;;0.20;0.20;;;11.70;99.90;;;;;;5032735;28;20044;-78
2023/10/17 15:45:17;;;;;;;0.35;0.28;;;11.60;99.90;;;;;;5037894;28;20045;-78
2023/10/17 15:47:48;;;;;;;1.08;0.47;;;11.60;99.90;;;;;;5036399;28;20046;-78
2023/10/17 15:50:17;;;;;;;0.47;0.47;;;11.50;99.90;;;;;;5045184;28;20036;-78